sensor_id;sensor_type;location;lat;lon;timestamp;P1;durP1;ratioP1;P2;durP2;ratioP2
73893;SDS011;62699;50.534;12.784;2022-08-25T00:07:58;8.85;;;5.88;;
73893;SDS011;62699;50.534;12.784;2022-08-25T00:13:18;10.85;;;6.95;;
73893;SDS011;62699;50.534;12.784;2022-08-25T00:18:39;9.30;;;6.07;;
73893;SDS011;62699;50.534;12.784;2022-08-25T00:23:59;9.32;;;5.85;;
73893;SDS011;62699;50.534;12.784;2022-08-25T00:29:25;10.40;;;6.05;;
73893;SDS011;62699;50.534;12.784;2022-08-25T00:34:45;11.52;;;7.40;;
73893;SDS011;62699;50.534;12.784;2022-08-25T00:40:06;9.52;;;6.20;;
73893;SDS011;62699;50.534;12.784;2022-08-25T00:45:37;10.80;;;6.28;;
73893;SDS011;62699;50.534;12.784;2022-08-25T00:50:59;12.63;;;7.85;;
73893;SDS011;62699;50.534;12.784;2022-08-25T00:56:20;9.07;;;5.95;;
73893;SDS011;62699;50.534;12.784;2022-08-25T01:01:44;10.93;;;6.30;;
73893;SDS011;62699;50.534;12.784;2022-08-25T01:07:04;11.75;;;7.15;;
73893;SDS011;62699;50.534;12.784;2022-08-25T01:12:25;11.90;;;8.57;;
73893;SDS011;62699;50.534;12.784;2022-08-25T01:23:27;10.85;;;6.68;;
73893;SDS011;62699;50.534;12.784;2022-08-25T01:28:47;10.45;;;6.90;;
73893;SDS011;62699;50.534;12.784;2022-08-25T01:34:28;11.80;;;7.15;;
73893;SDS011;62699;50.534;12.784;2022-08-25T01:39:49;12.07;;;7.30;;
73893;SDS011;62699;50.534;12.784;2022-08-25T01:45:08;11.15;;;7.40;;
73893;SDS011;62699;50.534;12.784;2022-08-25T01:50:38;13.95;;;7.43;;
73893;SDS011;62699;50.534;12.784;2022-08-25T01:56:05;10.48;;;6.60;;
73893;SDS011;62699;50.534;12.784;2022-08-25T02:01:26;12.35;;;7.63;;
73893;SDS011;62699;50.534;12.784;2022-08-25T02:06:46;9.30;;;6.15;;
73893;SDS011;62699;50.534;12.784;2022-08-25T02:17:45;10.43;;;6.15;;
73893;SDS011;62699;50.534;12.784;2022-08-25T02:23:04;10.15;;;6.50;;
73893;SDS011;62699;50.534;12.784;2022-08-25T02:28:24;9.60;;;6.47;;
73893;SDS011;62699;50.534;12.784;2022-08-25T02:33:43;10.07;;;6.22;;
73893;SDS011;62699;50.534;12.784;2022-08-25T02:39:05;9.35;;;6.15;;
73893;SDS011;62699;50.534;12.784;2022-08-25T02:44:25;10.82;;;6.60;;
73893;SDS011;62699;50.534;12.784;2022-08-25T02:49:45;10.18;;;6.50;;
73893;SDS011;62699;50.534;12.784;2022-08-25T02:55:05;13.27;;;7.72;;
73893;SDS011;62699;50.534;12.784;2022-08-25T03:00:32;10.70;;;6.70;;
73893;SDS011;62699;50.534;12.784;2022-08-25T03:05:52;9.90;;;6.35;;
73893;SDS011;62699;50.534;12.784;2022-08-25T03:11:11;10.57;;;6.43;;
73893;SDS011;62699;50.534;12.784;2022-08-25T03:16:30;13.25;;;8.27;;
73893;SDS011;62699;50.534;12.784;2022-08-25T03:21:50;10.68;;;6.88;;
73893;SDS011;62699;50.534;12.784;2022-08-25T03:27:13;9.63;;;6.05;;
73893;SDS011;62699;50.534;12.784;2022-08-25T03:32:33;10.63;;;6.85;;
73893;SDS011;62699;50.534;12.784;2022-08-25T03:37:55;10.70;;;7.47;;
73893;SDS011;62699;50.534;12.784;2022-08-25T03:43:16;14.18;;;8.13;;
73893;SDS011;62699;50.534;12.784;2022-08-25T03:48:35;14.18;;;9.13;;
73893;SDS011;62699;50.534;12.784;2022-08-25T03:53:56;12.38;;;7.88;;
73893;SDS011;62699;50.534;12.784;2022-08-25T03:59:23;14.57;;;9.73;;
73893;SDS011;62699;50.534;12.784;2022-08-25T04:04:44;11.98;;;6.60;;
73893;SDS011;62699;50.534;12.784;2022-08-25T04:10:04;10.82;;;7.18;;
73893;SDS011;62699;50.534;12.784;2022-08-25T04:15:25;13.63;;;9.38;;
73893;SDS011;62699;50.534;12.784;2022-08-25T04:26:42;11.43;;;7.03;;
73893;SDS011;62699;50.534;12.784;2022-08-25T04:32:03;9.90;;;6.22;;
73893;SDS011;62699;50.534;12.784;2022-08-25T04:37:24;10.40;;;6.50;;
73893;SDS011;62699;50.534;12.784;2022-08-25T04:42:42;10.10;;;6.43;;
73893;SDS011;62699;50.534;12.784;2022-08-25T04:48:02;11.07;;;7.28;;
73893;SDS011;62699;50.534;12.784;2022-08-25T04:53:22;10.63;;;6.88;;
73893;SDS011;62699;50.534;12.784;2022-08-25T05:11:25;14.98;;;9.30;;
73893;SDS011;62699;50.534;12.784;2022-08-25T05:16:46;13.32;;;7.07;;
73893;SDS011;62699;50.534;12.784;2022-08-25T05:22:05;15.50;;;10.20;;
73893;SDS011;62699;50.534;12.784;2022-08-25T05:27:24;12.98;;;8.32;;
73893;SDS011;62699;50.534;12.784;2022-08-25T05:32:44;11.48;;;7.38;;
73893;SDS011;62699;50.534;12.784;2022-08-25T05:38:04;16.83;;;9.00;;
73893;SDS011;62699;50.534;12.784;2022-08-25T05:43:24;12.45;;;6.85;;
73893;SDS011;62699;50.534;12.784;2022-08-25T05:48:43;12.85;;;8.00;;
73893;SDS011;62699;50.534;12.784;2022-08-25T05:54:03;11.52;;;7.65;;
73893;SDS011;62699;50.534;12.784;2022-08-25T05:59:23;13.02;;;7.75;;
73893;SDS011;62699;50.534;12.784;2022-08-25T06:04:42;14.82;;;8.77;;
73893;SDS011;62699;50.534;12.784;2022-08-25T06:10:07;13.13;;;7.68;;
73893;SDS011;62699;50.534;12.784;2022-08-25T06:15:30;13.60;;;7.72;;
73893;SDS011;62699;50.534;12.784;2022-08-25T06:20:49;13.88;;;7.45;;
73893;SDS011;62699;50.534;12.784;2022-08-25T06:26:09;9.30;;;6.85;;
73893;SDS011;62699;50.534;12.784;2022-08-25T06:31:29;9.98;;;6.78;;
73893;SDS011;62699;50.534;12.784;2022-08-25T06:36:49;12.02;;;6.93;;
73893;SDS011;62699;50.534;12.784;2022-08-25T06:42:16;8.93;;;6.47;;
73893;SDS011;62699;50.534;12.784;2022-08-25T06:47:36;11.18;;;6.45;;
73893;SDS011;62699;50.534;12.784;2022-08-25T06:52:54;10.38;;;6.30;;
73893;SDS011;62699;50.534;12.784;2022-08-25T06:58:15;9.90;;;6.75;;
73893;SDS011;62699;50.534;12.784;2022-08-25T07:03:33;9.00;;;6.45;;
73893;SDS011;62699;50.534;12.784;2022-08-25T07:09:06;8.48;;;5.72;;
73893;SDS011;62699;50.534;12.784;2022-08-25T07:14:26;10.73;;;6.32;;
73893;SDS011;62699;50.534;12.784;2022-08-25T07:19:46;9.23;;;6.40;;
73893;SDS011;62699;50.534;12.784;2022-08-25T07:25:06;10.70;;;7.22;;
73893;SDS011;62699;50.534;12.784;2022-08-25T07:30:26;11.20;;;8.32;;
73893;SDS011;62699;50.534;12.784;2022-08-25T07:35:45;12.40;;;7.70;;
73893;SDS011;62699;50.534;12.784;2022-08-25T07:41:05;10.15;;;7.28;;
73893;SDS011;62699;50.534;12.784;2022-08-25T07:46:24;11.25;;;6.82;;
73893;SDS011;62699;50.534;12.784;2022-08-25T07:57:22;10.48;;;7.55;;
73893;SDS011;62699;50.534;12.784;2022-08-25T08:02:45;10.07;;;7.28;;
73893;SDS011;62699;50.534;12.784;2022-08-25T08:20:46;13.02;;;8.13;;
73893;SDS011;62699;50.534;12.784;2022-08-25T08:26:07;12.35;;;9.68;;
73893;SDS011;62699;50.534;12.784;2022-08-25T08:31:25;11.75;;;8.25;;
73893;SDS011;62699;50.534;12.784;2022-08-25T08:36:55;14.25;;;9.27;;
73893;SDS011;62699;50.534;12.784;2022-08-25T08:48:04;15.70;;;7.70;;
73893;SDS011;62699;50.534;12.784;2022-08-25T08:53:43;16.20;;;8.20;;
73893;SDS011;62699;50.534;12.784;2022-08-25T08:59:12;17.85;;;8.32;;
73893;SDS011;62699;50.534;12.784;2022-08-25T09:10:08;29.80;;;14.65;;
73893;SDS011;62699;50.534;12.784;2022-08-25T09:32:52;24.00;;;10.95;;
73893;SDS011;62699;50.534;12.784;2022-08-25T09:38:21;29.58;;;11.60;;
73893;SDS011;62699;50.534;12.784;2022-08-25T09:43:43;21.40;;;11.50;;
73893;SDS011;62699;50.534;12.784;2022-08-25T09:54:30;23.88;;;12.98;;
73893;SDS011;62699;50.534;12.784;2022-08-25T09:59:52;23.42;;;12.30;;
73893;SDS011;62699;50.534;12.784;2022-08-25T10:05:22;26.52;;;11.57;;
73893;SDS011;62699;50.534;12.784;2022-08-25T10:10:44;19.98;;;10.93;;
73893;SDS011;62699;50.534;12.784;2022-08-25T10:16:24;21.87;;;10.70;;
73893;SDS011;62699;50.534;12.784;2022-08-25T10:21:58;20.27;;;9.48;;
73893;SDS011;62699;50.534;12.784;2022-08-25T10:27:26;23.50;;;9.85;;
73893;SDS011;62699;50.534;12.784;2022-08-25T10:32:58;21.35;;;9.93;;
73893;SDS011;62699;50.534;12.784;2022-08-25T10:38:37;23.15;;;9.93;;
73893;SDS011;62699;50.534;12.784;2022-08-25T10:49:49;18.92;;;8.55;;
73893;SDS011;62699;50.534;12.784;2022-08-25T10:55:17;24.48;;;8.75;;
73893;SDS011;62699;50.534;12.784;2022-08-25T11:01:02;24.65;;;9.52;;
73893;SDS011;62699;50.534;12.784;2022-08-25T11:06:38;15.85;;;8.18;;
73893;SDS011;62699;50.534;12.784;2022-08-25T11:12:14;20.23;;;8.97;;
73893;SDS011;62699;50.534;12.784;2022-08-25T11:28:47;13.95;;;7.00;;
73893;SDS011;62699;50.534;12.784;2022-08-25T11:34:10;17.60;;;7.63;;
73893;SDS011;62699;50.534;12.784;2022-08-25T11:56:31;13.40;;;6.22;;
73893;SDS011;62699;50.534;12.784;2022-08-25T12:24:02;18.35;;;7.57;;
73893;SDS011;62699;50.534;12.784;2022-08-25T12:29:28;19.50;;;6.05;;
73893;SDS011;62699;50.534;12.784;2022-08-25T12:57:43;14.88;;;5.60;;
73893;SDS011;62699;50.534;12.784;2022-08-25T13:14:43;11.43;;;4.80;;
73893;SDS011;62699;50.534;12.784;2022-08-25T13:20:17;12.23;;;4.63;;
73893;SDS011;62699;50.534;12.784;2022-08-25T13:25:47;22.13;;;6.10;;
73893;SDS011;62699;50.534;12.784;2022-08-25T13:31:16;20.83;;;6.47;;
73893;SDS011;62699;50.534;12.784;2022-08-25T13:36:44;24.63;;;6.88;;
73893;SDS011;62699;50.534;12.784;2022-08-25T13:42:23;15.07;;;4.90;;
73893;SDS011;62699;50.534;12.784;2022-08-25T13:47:42;17.10;;;7.13;;
73893;SDS011;62699;50.534;12.784;2022-08-25T13:53:23;11.35;;;4.82;;
73893;SDS011;62699;50.534;12.784;2022-08-25T13:58:44;11.35;;;4.93;;
73893;SDS011;62699;50.534;12.784;2022-08-25T14:09:46;10.27;;;4.53;;
73893;SDS011;62699;50.534;12.784;2022-08-25T14:15:27;17.67;;;6.10;;
73893;SDS011;62699;50.534;12.784;2022-08-25T14:20:48;11.68;;;4.55;;
73893;SDS011;62699;50.534;12.784;2022-08-25T14:26:11;9.75;;;4.07;;
73893;SDS011;62699;50.534;12.784;2022-08-25T14:31:31;12.32;;;4.93;;
73893;SDS011;62699;50.534;12.784;2022-08-25T14:36:52;11.63;;;4.55;;
73893;SDS011;62699;50.534;12.784;2022-08-25T14:42:14;17.42;;;6.22;;
73893;SDS011;62699;50.534;12.784;2022-08-25T14:47:34;15.50;;;5.25;;
73893;SDS011;62699;50.534;12.784;2022-08-25T14:52:54;11.85;;;5.07;;
73893;SDS011;62699;50.534;12.784;2022-08-25T14:58:13;11.80;;;4.95;;
73893;SDS011;62699;50.534;12.784;2022-08-25T15:03:37;10.38;;;4.82;;
73893;SDS011;62699;50.534;12.784;2022-08-25T15:09:04;11.40;;;6.10;;
73893;SDS011;62699;50.534;12.784;2022-08-25T15:14:29;13.75;;;5.18;;
73893;SDS011;62699;50.534;12.784;2022-08-25T15:19:48;15.05;;;6.28;;
73893;SDS011;62699;50.534;12.784;2022-08-25T15:25:07;17.67;;;6.50;;
73893;SDS011;62699;50.534;12.784;2022-08-25T15:30:26;10.75;;;6.00;;
73893;SDS011;62699;50.534;12.784;2022-08-25T15:35:46;19.42;;;6.47;;
73893;SDS011;62699;50.534;12.784;2022-08-25T15:41:06;18.80;;;7.55;;
73893;SDS011;62699;50.534;12.784;2022-08-25T15:46:27;10.38;;;5.03;;
73893;SDS011;62699;50.534;12.784;2022-08-25T15:52:00;11.23;;;5.25;;
73893;SDS011;62699;50.534;12.784;2022-08-25T15:57:19;16.48;;;8.43;;
73893;SDS011;62699;50.534;12.784;2022-08-25T16:02:39;16.35;;;6.20;;
73893;SDS011;62699;50.534;12.784;2022-08-25T16:07:58;14.48;;;6.13;;
73893;SDS011;62699;50.534;12.784;2022-08-25T16:13:17;19.25;;;8.00;;
73893;SDS011;62699;50.534;12.784;2022-08-25T16:18:36;13.57;;;6.53;;
73893;SDS011;62699;50.534;12.784;2022-08-25T16:23:56;10.60;;;6.70;;
73893;SDS011;62699;50.534;12.784;2022-08-25T16:29:18;10.57;;;6.05;;
73893;SDS011;62699;50.534;12.784;2022-08-25T16:34:37;15.45;;;6.22;;
73893;SDS011;62699;50.534;12.784;2022-08-25T16:39:56;11.75;;;6.25;;
73893;SDS011;62699;50.534;12.784;2022-08-25T16:45:15;18.52;;;7.63;;
73893;SDS011;62699;50.534;12.784;2022-08-25T16:50:37;12.65;;;5.22;;
73893;SDS011;62699;50.534;12.784;2022-08-25T16:56:03;16.83;;;7.10;;
73893;SDS011;62699;50.534;12.784;2022-08-25T17:01:24;11.48;;;6.55;;
73893;SDS011;62699;50.534;12.784;2022-08-25T17:06:44;13.75;;;8.02;;
73893;SDS011;62699;50.534;12.784;2022-08-25T17:12:03;16.13;;;6.32;;
73893;SDS011;62699;50.534;12.784;2022-08-25T17:17:23;9.40;;;5.28;;
73893;SDS011;62699;50.534;12.784;2022-08-25T17:22:43;10.75;;;6.10;;
73893;SDS011;62699;50.534;12.784;2022-08-25T17:28:02;10.98;;;6.03;;
73893;SDS011;62699;50.534;12.784;2022-08-25T17:33:22;14.23;;;7.90;;
73893;SDS011;62699;50.534;12.784;2022-08-25T17:38:41;13.13;;;6.97;;
73893;SDS011;62699;50.534;12.784;2022-08-25T17:44:02;17.48;;;7.95;;
73893;SDS011;62699;50.534;12.784;2022-08-25T17:49:22;14.30;;;7.82;;
73893;SDS011;62699;50.534;12.784;2022-08-25T17:54:42;12.27;;;7.95;;
73893;SDS011;62699;50.534;12.784;2022-08-25T18:00:01;13.27;;;8.40;;
73893;SDS011;62699;50.534;12.784;2022-08-25T18:05:27;13.60;;;7.00;;
73893;SDS011;62699;50.534;12.784;2022-08-25T18:10:46;17.70;;;8.30;;
73893;SDS011;62699;50.534;12.784;2022-08-25T18:16:08;14.45;;;8.05;;
73893;SDS011;62699;50.534;12.784;2022-08-25T18:21:32;13.13;;;7.53;;
73893;SDS011;62699;50.534;12.784;2022-08-25T18:26:53;13.27;;;7.68;;
73893;SDS011;62699;50.534;12.784;2022-08-25T18:32:12;15.30;;;8.32;;
73893;SDS011;62699;50.534;12.784;2022-08-25T18:37:31;18.17;;;8.13;;
73893;SDS011;62699;50.534;12.784;2022-08-25T18:43:10;20.10;;;9.02;;
73893;SDS011;62699;50.534;12.784;2022-08-25T18:48:31;18.23;;;9.30;;
73893;SDS011;62699;50.534;12.784;2022-08-25T18:53:50;15.27;;;8.98;;
73893;SDS011;62699;50.534;12.784;2022-08-25T18:59:09;13.18;;;8.43;;
73893;SDS011;62699;50.534;12.784;2022-08-25T19:04:28;19.90;;;8.65;;
73893;SDS011;62699;50.534;12.784;2022-08-25T19:09:49;12.98;;;7.97;;
73893;SDS011;62699;50.534;12.784;2022-08-25T19:15:09;14.15;;;8.32;;
73893;SDS011;62699;50.534;12.784;2022-08-25T19:20:28;11.90;;;7.82;;
73893;SDS011;62699;50.534;12.784;2022-08-25T19:25:48;13.45;;;7.85;;
73893;SDS011;62699;50.534;12.784;2022-08-25T19:31:08;16.15;;;7.95;;
73893;SDS011;62699;50.534;12.784;2022-08-25T19:36:27;13.63;;;7.65;;
73893;SDS011;62699;50.534;12.784;2022-08-25T19:41:49;16.63;;;8.40;;
73893;SDS011;62699;50.534;12.784;2022-08-25T19:47:08;17.73;;;8.70;;
73893;SDS011;62699;50.534;12.784;2022-08-25T19:52:28;12.60;;;7.90;;
73893;SDS011;62699;50.534;12.784;2022-08-25T19:57:46;13.98;;;8.27;;
73893;SDS011;62699;50.534;12.784;2022-08-25T20:03:07;17.23;;;8.45;;
73893;SDS011;62699;50.534;12.784;2022-08-25T20:08:26;14.35;;;7.75;;
73893;SDS011;62699;50.534;12.784;2022-08-25T20:13:45;12.65;;;7.43;;
73893;SDS011;62699;50.534;12.784;2022-08-25T20:19:14;12.65;;;7.60;;
73893;SDS011;62699;50.534;12.784;2022-08-25T20:24:38;14.68;;;7.60;;
73893;SDS011;62699;50.534;12.784;2022-08-25T20:30:12;13.75;;;7.93;;
73893;SDS011;62699;50.534;12.784;2022-08-25T20:35:36;14.95;;;8.38;;
73893;SDS011;62699;50.534;12.784;2022-08-25T20:40:56;15.40;;;8.57;;
73893;SDS011;62699;50.534;12.784;2022-08-25T20:46:16;14.85;;;8.93;;
73893;SDS011;62699;50.534;12.784;2022-08-25T20:51:36;16.55;;;8.05;;
73893;SDS011;62699;50.534;12.784;2022-08-25T20:56:56;13.48;;;8.70;;
73893;SDS011;62699;50.534;12.784;2022-08-25T21:02:15;16.23;;;7.70;;
73893;SDS011;62699;50.534;12.784;2022-08-25T21:07:35;11.90;;;7.53;;
73893;SDS011;62699;50.534;12.784;2022-08-25T21:12:54;15.50;;;7.85;;
73893;SDS011;62699;50.534;12.784;2022-08-25T21:18:13;13.52;;;7.70;;
73893;SDS011;62699;50.534;12.784;2022-08-25T21:23:33;13.50;;;8.10;;
73893;SDS011;62699;50.534;12.784;2022-08-25T21:28:54;13.98;;;8.23;;
73893;SDS011;62699;50.534;12.784;2022-08-25T21:34:15;11.85;;;7.07;;
73893;SDS011;62699;50.534;12.784;2022-08-25T21:39:36;12.27;;;7.47;;
73893;SDS011;62699;50.534;12.784;2022-08-25T21:44:55;14.98;;;8.20;;
73893;SDS011;62699;50.534;12.784;2022-08-25T21:50:16;16.05;;;8.80;;
73893;SDS011;62699;50.534;12.784;2022-08-25T21:55:38;17.23;;;8.50;;
73893;SDS011;62699;50.534;12.784;2022-08-25T22:01:12;16.90;;;9.27;;
73893;SDS011;62699;50.534;12.784;2022-08-25T22:06:33;18.33;;;9.40;;
73893;SDS011;62699;50.534;12.784;2022-08-25T22:11:54;18.42;;;9.95;;
73893;SDS011;62699;50.534;12.784;2022-08-25T22:17:13;16.85;;;10.07;;
73893;SDS011;62699;50.534;12.784;2022-08-25T22:22:33;19.15;;;9.13;;
73893;SDS011;62699;50.534;12.784;2022-08-25T22:27:52;17.02;;;10.38;;
73893;SDS011;62699;50.534;12.784;2022-08-25T22:33:11;15.93;;;8.32;;
73893;SDS011;62699;50.534;12.784;2022-08-25T22:38:31;14.98;;;8.80;;
73893;SDS011;62699;50.534;12.784;2022-08-25T22:43:51;14.05;;;8.80;;
73893;SDS011;62699;50.534;12.784;2022-08-25T22:49:11;13.63;;;8.65;;
73893;SDS011;62699;50.534;12.784;2022-08-25T22:54:31;13.25;;;6.97;;
73893;SDS011;62699;50.534;12.784;2022-08-25T22:59:50;13.98;;;6.95;;
73893;SDS011;62699;50.534;12.784;2022-08-25T23:05:10;13.00;;;7.50;;
73893;SDS011;62699;50.534;12.784;2022-08-25T23:10:32;17.25;;;8.90;;
73893;SDS011;62699;50.534;12.784;2022-08-25T23:15:52;15.90;;;8.23;;
73893;SDS011;62699;50.534;12.784;2022-08-25T23:21:11;18.15;;;8.65;;
73893;SDS011;62699;50.534;12.784;2022-08-25T23:26:50;14.90;;;8.43;;
73893;SDS011;62699;50.534;12.784;2022-08-25T23:32:09;18.17;;;9.45;;
73893;SDS011;62699;50.534;12.784;2022-08-25T23:37:32;12.02;;;7.47;;
73893;SDS011;62699;50.534;12.784;2022-08-25T23:42:51;12.70;;;6.95;;
73893;SDS011;62699;50.534;12.784;2022-08-25T23:48:11;13.15;;;7.38;;
73893;SDS011;62699;50.534;12.784;2022-08-25T23:59:13;12.43;;;7.63;;
